Time;durP1;ratioP1;P1;durP2;ratioP2;P2;SDS_P1;SDS_P2;PMS_P1;PMS_P2;Temp;Humidity;BMP_temperature;BMP_pressure;BME280_temperature;BME280_humidity;BME280_pressure;Samples;Min_cycle;Max_cycle;Signal;HPM_P1;HPM_P2
2022/01/23 00:00:05;;;;;;;17.02;7.60;;;-3.40;99.90;;;;;;4995701;28;20110;-82
2022/01/23 00:02:34;;;;;;;20.63;7.32;;;-3.50;99.90;;;;;;4986360;28;20046;-84
2022/01/23 00:05:06;;;;;;;15.38;7.43;;;-2.50;99.90;;;;;;4986650;28;20117;-83
2022/01/23 00:07:34;;;;;;;13.30;7.63;;;-2.00;99.90;;;;;;4969503;28;20191;-77
2022/01/23 00:10:05;;;;;;;13.55;6.28;;;-3.40;99.90;;;;;;4968396;28;20054;-79
2022/01/23 00:12:37;;;;;;;17.98;7.18;;;-3.50;99.90;;;;;;4978177;28;20058;-82
2022/01/23 00:17:47;;;;;;;16.30;6.80;;;-3.60;99.90;;;;;;4987694;28;20749;-87
2022/01/23 00:20:13;;;;;;;13.82;7.20;;;-3.70;99.90;;;;;;4987523;28;20026;-78
2022/01/23 00:22:50;;;;;;;15.07;7.18;;;-2.50;99.90;;;;;;4986063;28;20348;-76
2022/01/23 00:30:47;;;;;;;15.93;7.90;;;-2.70;99.90;;;;;;4989331;28;20033;-83
2022/01/23 00:33:13;;;;;;;14.52;7.72;;;-3.90;99.90;;;;;;4987114;28;20026;-82
2022/01/23 00:35:41;;;;;;;17.92;8.10;;;-3.80;99.90;;;;;;4986049;28;20034;-83
2022/01/23 00:38:08;;;;;;;17.30;6.55;;;-2.60;99.90;;;;;;4987540;28;20046;-77
2022/01/23 00:40:36;;;;;;;15.45;6.63;;;-1.70;99.90;;;;;;4987794;28;20120;-90
2022/01/23 00:43:08;;;;;;;13.88;7.03;;;-2.80;99.90;;;;;;4987388;28;20086;-83
2022/01/23 00:45:36;;;;;;;13.60;6.45;;;-3.80;99.90;;;;;;4977593;28;20527;-86
2022/01/23 00:48:08;;;;;;;13.07;6.90;;;-3.80;99.90;;;;;;4986610;28;20027;-81
2022/01/23 00:50:37;;;;;;;15.05;6.88;;;-3.40;99.90;;;;;;4987055;28;20030;-76
2022/01/23 00:53:08;;;;;;;13.80;6.45;;;-2.30;99.90;;;;;;5002494;28;20046;-84
2022/01/23 00:55:34;;;;;;;13.55;6.57;;;-2.40;99.90;;;;;;4986347;28;20053;-82
2022/01/23 00:58:00;;;;;;;13.35;6.65;;;-3.70;99.90;;;;;;4986851;28;20025;-79
2022/01/23 01:00:25;;;;;;;11.93;6.32;;;-2.90;99.90;;;;;;4987940;28;20030;-81
2022/01/23 01:02:51;;;;;;;15.18;6.85;;;-1.60;99.90;;;;;;4989498;28;20033;-81
2022/01/23 01:05:17;;;;;;;11.60;6.00;;;-1.70;99.90;;;;;;4988784;28;20030;-82
2022/01/23 01:07:43;;;;;;;12.93;6.15;;;-3.50;99.90;;;;;;4991046;28;20030;-79
2022/01/23 01:10:17;;;;;;;12.57;6.60;;;-2.60;99.90;;;;;;4994410;28;20261;-83
2022/01/23 01:12:45;;;;;;;22.88;8.27;;;-1.70;99.90;;;;;;4994737;28;20023;-79
2022/01/23 01:31:35;;;;;;;14.30;6.95;;;-4.40;99.90;;;;;;4993022;28;20038;-82
2022/01/23 01:36:46;;;;;;;16.58;7.03;;;-4.40;99.90;;;;;;4992232;28;20038;-76
2022/01/23 01:39:14;;;;;;;12.35;6.05;;;-4.30;99.90;;;;;;4992532;28;20509;-85
2022/01/23 01:41:41;;;;;;;13.88;6.50;;;-4.40;99.90;;;;;;5007616;28;20266;-85
2022/01/23 01:44:07;;;;;;;12.93;5.85;;;-3.30;99.90;;;;;;4992175;28;20030;-90
2022/01/23 01:46:33;;;;;;;13.85;5.65;;;-3.50;99.90;;;;;;4992116;28;20027;-85
2022/01/23 01:48:59;;;;;;;13.15;6.53;;;-4.50;99.90;;;;;;5008366;28;20040;-79
2022/01/23 01:51:30;;;;;;;22.83;6.35;;;-4.60;99.90;;;;;;4993490;28;20025;-85
2022/01/23 01:54:03;;;;;;;20.50;7.85;;;-3.00;99.90;;;;;;4993305;28;20061;-88
2022/01/23 01:56:36;;;;;;;11.98;6.03;;;-4.60;99.90;;;;;;4993222;28;20030;-87
2022/01/23 01:59:44;;;;;;;19.17;6.72;;;-4.40;99.90;;;;;;4992148;28;20078;-90
2022/01/23 02:10:05;;;;;;;12.02;6.25;;;-4.40;99.90;;;;;;4993711;28;20037;-83
2022/01/23 02:15:38;;;;;;;17.20;7.00;;;-4.30;99.90;;;;;;4993000;28;20046;-87
2022/01/23 02:24:36;;;;;;;15.48;5.93;;;-4.10;99.90;;;;;;4993207;28;20045;-89
2022/01/23 02:50:47;;;;;;;11.60;6.47;;;-4.00;99.90;;;;;;4992320;28;20100;-90
2022/01/23 02:56:00;;;;;;;13.00;5.88;;;-3.60;99.90;;;;;;4991980;28;20038;-79
2022/01/23 02:58:35;;;;;;;11.02;5.95;;;-3.80;99.90;;;;;;4991102;28;20022;-80
2022/01/23 03:03:29;;;;;;;16.55;6.97;;;-2.60;99.90;;;;;;4993141;28;20471;-83
2022/01/23 03:14:41;;;;;;;14.73;7.25;;;-2.30;99.90;;;;;;4992949;28;20111;-84
2022/01/23 03:25:29;;;;;;;15.75;6.97;;;-3.10;99.90;;;;;;4994770;28;20040;-82
2022/01/23 03:30:50;;;;;;;20.65;8.02;;;-2.90;99.90;;;;;;5001197;28;20034;-77
2022/01/23 03:33:15;;;;;;;16.55;7.43;;;-3.10;99.90;;;;;;5008392;28;20026;-79
2022/01/23 03:35:41;;;;;;;21.40;7.07;;;-3.00;99.90;;;;;;5010090;28;20038;-77
2022/01/23 03:38:07;;;;;;;15.10;7.90;;;-2.30;99.90;;;;;;5009852;28;20038;-77
2022/01/23 03:40:33;;;;;;;18.90;7.95;;;-2.80;99.90;;;;;;5006562;28;20406;-77
2022/01/23 03:43:08;;;;;;;20.10;9.18;;;-1.80;99.90;;;;;;5005278;28;20026;-79
2022/01/23 03:50:47;;;;;;;18.50;7.82;;;-2.40;99.90;;;;;;4999505;28;20018;-79
2022/01/23 03:53:15;;;;;;;15.85;8.18;;;-2.30;99.90;;;;;;5011664;28;20080;-85
2022/01/23 03:55:41;;;;;;;17.13;8.40;;;-2.20;99.90;;;;;;5001026;28;20038;-77
2022/01/23 03:58:07;;;;;;;13.20;7.47;;;-2.00;99.90;;;;;;5005124;28;20085;-77
2022/01/23 04:00:33;;;;;;;16.13;8.20;;;-0.90;99.90;;;;;;5006626;28;20018;-78
2022/01/23 04:02:59;;;;;;;21.02;8.45;;;-1.90;99.90;;;;;;4996961;28;20161;-79
2022/01/23 04:05:25;;;;;;;30.02;8.98;;;-2.10;99.90;;;;;;4991288;28;20187;-81
2022/01/23 04:07:51;;;;;;;20.42;9.00;;;-2.10;99.90;;;;;;4990533;28;20542;-77
2022/01/23 04:10:19;;;;;;;20.25;8.82;;;-1.80;99.90;;;;;;4990960;28;20058;-91
2022/01/23 04:15:24;;;;;;;21.00;9.77;;;-0.40;99.90;;;;;;4990818;28;20445;-76
2022/01/23 04:34:17;;;;;;;19.17;9.10;;;-1.80;99.90;;;;;;4991901;28;20037;-81
2022/01/23 05:01:30;;;;;;;19.25;9.05;;;-1.80;99.90;;;;;;5012965;28;20054;-77
2022/01/23 05:06:31;;;;;;;18.83;9.68;;;-2.00;99.90;;;;;;5010495;28;20041;-78
2022/01/23 05:08:56;;;;;;;19.95;8.70;;;-1.40;99.90;;;;;;5009994;28;20018;-76
2022/01/23 05:11:22;;;;;;;22.45;8.63;;;-2.00;99.90;;;;;;5010151;28;20062;-77
2022/01/23 05:13:48;;;;;;;21.30;9.23;;;-2.00;99.90;;;;;;5010787;28;20021;-77
2022/01/23 05:16:14;;;;;;;20.33;8.88;;;-0.70;99.90;;;;;;5024209;28;20097;-76
2022/01/23 05:18:40;;;;;;;22.83;10.90;;;-2.00;99.90;;;;;;5009703;28;20022;-77
2022/01/23 05:23:54;;;;;;;18.73;8.75;;;-2.00;99.90;;;;;;4975268;28;20034;-77
2022/01/23 05:26:20;;;;;;;16.48;8.27;;;-2.00;99.90;;;;;;5009028;28;20026;-78
2022/01/23 05:28:46;;;;;;;21.65;9.68;;;-1.70;99.90;;;;;;5008581;28;20049;-76
2022/01/23 05:31:12;;;;;;;20.25;8.90;;;-0.50;99.90;;;;;;5002000;28;20030;-77
2022/01/23 05:33:37;;;;;;;21.13;8.85;;;-1.20;99.90;;;;;;5010093;28;20037;-77
2022/01/23 05:36:05;;;;;;;23.25;9.88;;;-1.50;99.90;;;;;;5004345;28;20042;-88
2022/01/23 05:38:31;;;;;;;16.02;8.43;;;-1.60;99.90;;;;;;4993588;28;20068;-79
2022/01/23 05:40:58;;;;;;;33.63;12.95;;;-0.90;99.90;;;;;;4993459;28;20471;-81
2022/01/23 05:43:24;;;;;;;42.10;15.25;;;-1.20;99.90;;;;;;4993444;28;20490;-77
2022/01/23 05:45:51;;;;;;;47.42;17.35;;;0.30;99.90;;;;;;4993176;28;20468;-77
2022/01/23 05:48:17;;;;;;;43.55;17.17;;;-1.20;99.90;;;;;;4993304;28;20087;-77
2022/01/23 05:50:45;;;;;;;38.83;16.05;;;-1.20;99.90;;;;;;4993513;28;20022;-86
2022/01/23 05:53:11;;;;;;;43.88;13.90;;;-0.30;99.90;;;;;;4994504;28;20105;-81
2022/01/23 05:55:37;;;;;;;32.30;13.38;;;-1.30;99.90;;;;;;5007616;28;20065;-76
2022/01/23 05:58:03;;;;;;;36.40;14.32;;;-1.40;99.90;;;;;;5009478;28;20054;-77
2022/01/23 06:00:29;;;;;;;35.17;13.35;;;-1.50;99.90;;;;;;5010136;28;20507;-77
2022/01/23 06:02:55;;;;;;;29.60;13.02;;;-1.50;99.90;;;;;;5009501;28;20034;-76
2022/01/23 06:05:20;;;;;;;33.92;14.52;;;-0.70;99.90;;;;;;5009135;28;20023;-76
2022/01/23 06:07:48;;;;;;;34.28;13.70;;;-1.50;99.90;;;;;;5009294;28;20104;-76
2022/01/23 06:10:24;;;;;;;32.10;12.60;;;-1.50;99.90;;;;;;5005190;28;20027;-76
2022/01/23 06:12:49;;;;;;;27.75;12.10;;;-1.20;99.90;;;;;;4999853;28;20033;-77
2022/01/23 06:15:16;;;;;;;28.90;13.38;;;-1.30;99.90;;;;;;4999212;28;20030;-77
2022/01/23 06:17:42;;;;;;;28.08;11.90;;;-1.40;99.90;;;;;;5005564;28;20018;-81
2022/01/23 06:20:10;;;;;;;25.55;11.07;;;-0.90;99.90;;;;;;4992506;28;20606;-83
2022/01/23 06:22:36;;;;;;;27.30;11.77;;;-1.30;99.90;;;;;;4992713;28;20025;-88
2022/01/23 06:25:05;;;;;;;16.13;6.93;;;-0.80;99.90;;;;;;4993058;28;20360;-81
2022/01/23 06:27:31;;;;;;;36.60;13.27;;;-1.20;99.90;;;;;;4992458;28;20487;-87
2022/01/23 06:29:57;;;;;;;46.38;17.02;;;-1.00;99.90;;;;;;4992668;28;20026;-82
2022/01/23 06:32:26;;;;;;;31.42;12.80;;;-0.60;99.90;;;;;;4999062;28;20077;-77
2022/01/23 06:34:51;;;;;;;32.28;9.98;;;-1.20;99.90;;;;;;5006002;28;20033;-77
2022/01/23 06:37:17;;;;;;;24.48;11.95;;;-1.20;99.90;;;;;;5014320;28;20066;-81
2022/01/23 06:39:43;;;;;;;24.27;10.65;;;-1.20;99.90;;;;;;5013909;28;20077;-82
2022/01/23 06:42:09;;;;;;;29.95;11.75;;;-1.30;99.90;;;;;;5014463;28;20025;-80
2022/01/23 06:44:36;;;;;;;22.30;10.25;;;0.20;99.90;;;;;;5011178;28;20054;-78
2022/01/23 06:47:02;;;;;;;28.98;12.05;;;-1.10;99.90;;;;;;5010255;28;20019;-77
2022/01/23 06:49:28;;;;;;;22.48;12.20;;;-1.30;99.90;;;;;;5008537;28;20037;-78
2022/01/23 06:51:55;;;;;;;24.77;10.05;;;-1.30;99.90;;;;;;5008949;28;20026;-77
2022/01/23 06:54:20;;;;;;;27.15;11.00;;;-0.20;99.90;;;;;;5008194;28;20026;-78
2022/01/23 06:56:46;;;;;;;21.95;9.88;;;-0.30;99.90;;;;;;5004753;28;20037;-88
2022/01/23 06:59:13;;;;;;;27.02;12.27;;;-1.10;99.90;;;;;;4990497;28;20081;-94
2022/01/23 07:01:38;;;;;;;22.50;9.88;;;-0.90;99.90;;;;;;4991269;28;20033;-88
2022/01/23 07:04:04;;;;;;;25.20;11.98;;;-0.80;99.90;;;;;;4992050;28;20101;-78
2022/01/23 07:06:30;;;;;;;27.38;11.20;;;-0.70;99.90;;;;;;5000202;28;20026;-78
2022/01/23 07:08:55;;;;;;;23.92;10.95;;;-1.00;99.90;;;;;;5007638;28;20075;-76
2022/01/23 07:11:21;;;;;;;22.92;11.48;;;-1.00;99.90;;;;;;5008301;28;20097;-77
2022/01/23 07:13:47;;;;;;;25.00;9.95;;;-0.70;99.90;;;;;;5006089;28;20026;-77
2022/01/23 07:16:12;;;;;;;23.70;9.93;;;-1.00;99.90;;;;;;5008247;28;20042;-76
2022/01/23 07:18:38;;;;;;;25.00;11.30;;;-1.00;99.90;;;;;;5009698;28;20122;-78
2022/01/23 07:21:04;;;;;;;26.58;11.23;;;-1.00;99.90;;;;;;5007673;28;20026;-90
2022/01/23 07:23:30;;;;;;;21.85;11.80;;;-0.20;99.90;;;;;;4990956;28;20030;-92
2022/01/23 07:25:55;;;;;;;26.77;12.80;;;-0.80;99.90;;;;;;4990958;28;20041;-91
2022/01/23 07:28:25;;;;;;;29.95;12.77;;;-0.70;99.90;;;;;;4993031;28;20173;-92
2022/01/23 07:30:54;;;;;;;29.65;12.38;;;-0.20;99.90;;;;;;5003998;28;20021;-77
2022/01/23 07:33:20;;;;;;;;;;;0.60;99.90;;;;;;4995444;28;20081;-81
2022/01/23 07:35:47;;;;;;;37.08;12.20;;;-0.60;99.90;;;;;;4991217;28;20318;-84
2022/01/23 07:38:16;;;;;;;29.95;12.25;;;-0.30;99.90;;;;;;4992169;28;20077;-81
2022/01/23 07:40:48;;;;;;;28.95;12.80;;;-0.60;99.90;;;;;;5004209;28;20033;-78
2022/01/23 07:43:14;;;;;;;33.10;14.35;;;-0.60;99.90;;;;;;5012255;28;20089;-80
2022/01/23 07:45:40;;;;;;;36.80;14.93;;;0.70;99.90;;;;;;5009785;28;20029;-77
2022/01/23 07:48:07;;;;;;;25.15;10.52;;;0.30;99.90;;;;;;5004761;28;20023;-76
2022/01/23 07:50:33;;;;;;;26.30;11.98;;;-0.40;99.90;;;;;;5001557;28;20030;-77
2022/01/23 07:52:59;;;;;;;31.55;12.85;;;-0.30;99.90;;;;;;4992739;28;20033;-77
2022/01/23 07:55:24;;;;;;;29.80;12.40;;;-0.20;99.90;;;;;;5001023;28;20018;-76
2022/01/23 07:57:52;;;;;;;31.20;13.35;;;0.80;99.90;;;;;;5003317;28;20052;-75
2022/01/23 08:00:18;;;;;;;31.75;12.52;;;0.00;99.90;;;;;;5002190;28;20029;-76
2022/01/23 08:02:45;;;;;;;32.30;13.27;;;-0.30;99.90;;;;;;5000868;28;20281;-75
2022/01/23 08:05:11;;;;;;;30.40;13.88;;;-0.10;99.90;;;;;;5001962;28;20030;-76
2022/01/23 08:07:37;;;;;;;33.30;13.15;;;-0.40;99.90;;;;;;5003948;28;20026;-77
2022/01/23 08:10:06;;;;;;;35.08;14.70;;;0.00;99.90;;;;;;5002837;28;20494;-75
2022/01/23 08:12:32;;;;;;;31.33;14.13;;;-0.30;99.90;;;;;;5003791;28;20097;-76
2022/01/23 08:14:59;;;;;;;28.40;13.30;;;0.60;99.90;;;;;;5004766;28;20065;-78
2022/01/23 08:17:25;;;;;;;28.05;14.40;;;0.50;99.90;;;;;;5002058;28;20022;-75
2022/01/23 08:19:57;;;;;;;35.58;16.50;;;0.10;99.90;;;;;;5005047;28;20053;-76
2022/01/23 08:22:24;;;;;;;33.92;14.70;;;-0.30;99.90;;;;;;5004333;28;20026;-75
2022/01/23 08:24:51;;;;;;;29.10;13.48;;;-0.30;99.90;;;;;;5006479;28;20014;-76
2022/01/23 08:27:17;;;;;;;29.45;14.05;;;-0.20;99.90;;;;;;5005654;28;20046;-75
2022/01/23 08:29:43;;;;;;;36.35;15.63;;;0.20;99.90;;;;;;4991463;28;20534;-77
2022/01/23 08:32:10;;;;;;;35.42;16.40;;;0.00;99.90;;;;;;5005389;28;20037;-75
2022/01/23 08:34:37;;;;;;;27.42;13.00;;;0.20;99.90;;;;;;5004408;28;20299;-76
2022/01/23 08:37:05;;;;;;;25.35;12.18;;;0.20;99.90;;;;;;4984602;28;20150;-81
2022/01/23 08:39:33;;;;;;;29.17;11.38;;;0.20;99.90;;;;;;4984244;28;20019;-76
2022/01/23 08:41:59;;;;;;;25.23;11.20;;;0.20;99.90;;;;;;4982124;28;20171;-76
2022/01/23 08:44:27;;;;;;;33.38;14.57;;;0.40;99.90;;;;;;4965861;28;20510;-78
2022/01/23 08:46:54;;;;;;;32.40;14.77;;;0.50;99.90;;;;;;4975948;28;20417;-75
2022/01/23 08:49:22;;;;;;;27.20;11.95;;;0.40;99.90;;;;;;4975686;28;20055;-89
2022/01/23 08:51:50;;;;;;;29.88;11.43;;;0.40;99.90;;;;;;4949205;28;20061;-83
2022/01/23 08:54:16;;;;;;;22.38;12.38;;;0.50;99.90;;;;;;4967631;28;20383;-84
2022/01/23 08:56:42;;;;;;;22.63;11.02;;;0.50;99.90;;;;;;4948860;28;20101;-85
2022/01/23 08:59:08;;;;;;;24.98;12.38;;;1.00;99.90;;;;;;4966553;28;20087;-89
2022/01/23 09:01:35;;;;;;;26.00;11.18;;;0.70;99.90;;;;;;4950235;28;20186;-78
2022/01/23 09:04:01;;;;;;;25.40;11.43;;;0.70;99.90;;;;;;4949529;28;20031;-83
2022/01/23 09:06:27;;;;;;;29.33;11.63;;;0.80;99.90;;;;;;4958331;28;20030;-76
2022/01/23 09:08:54;;;;;;;24.40;11.25;;;0.80;99.90;;;;;;4985487;28;20023;-75
2022/01/23 09:14:07;;;;;;;27.05;11.60;;;1.00;99.90;;;;;;4987527;28;20034;-75
2022/01/23 09:16:39;;;;;;;20.90;10.07;;;1.20;99.90;;;;;;4987661;28;20458;-75
2022/01/23 09:19:05;;;;;;;25.38;10.93;;;0.80;99.90;;;;;;4960457;28;20114;-76
2022/01/23 09:21:42;;;;;;;24.92;11.43;;;1.00;99.90;;;;;;4986831;28;20046;-75
2022/01/23 09:24:11;;;;;;;24.08;12.23;;;1.10;99.90;;;;;;4993906;28;20483;-75
2022/01/23 09:26:37;;;;;;;29.63;12.90;;;1.10;99.90;;;;;;4994698;28;20037;-75
2022/01/23 09:29:17;;;;;;;24.95;12.38;;;1.50;99.90;;;;;;4994321;28;20039;-76
2022/01/23 09:31:48;;;;;;;22.85;10.90;;;1.20;99.90;;;;;;4994976;28;20079;-76
2022/01/23 09:34:42;;;;;;;30.90;11.85;;;1.10;99.90;;;;;;4982370;28;20029;-76
2022/01/23 09:37:13;;;;;;;30.63;14.15;;;1.30;99.90;;;;;;4959381;28;20051;-78
2022/01/23 09:39:42;;;;;;;24.13;11.05;;;1.40;99.90;;;;;;4963101;28;20026;-76
2022/01/23 09:42:22;;;;;;;19.40;10.60;;;1.60;99.90;;;;;;4995452;28;20037;-79
2022/01/23 09:44:52;;;;;;;29.55;13.10;;;1.90;99.90;;;;;;4997059;28;20057;-76
2022/01/23 09:47:20;;;;;;;25.15;10.55;;;1.90;99.90;;;;;;4993196;28;20486;-79
2022/01/23 09:49:46;;;;;;;19.83;10.70;;;1.90;99.90;;;;;;4997967;28;20030;-77
2022/01/23 09:52:13;;;;;;;22.55;10.52;;;1.90;99.90;;;;;;5004397;28;20121;-78
2022/01/23 09:54:41;;;;;;;22.48;10.65;;;2.00;99.90;;;;;;4991797;28;20343;-76
2022/01/23 09:57:09;;;;;;;17.15;8.05;;;2.20;99.90;;;;;;4989761;28;20042;-77
2022/01/23 09:59:36;;;;;;;24.50;9.90;;;2.40;99.90;;;;;;5002591;28;20094;-75
2022/01/23 10:02:03;;;;;;;20.40;9.20;;;2.60;99.90;;;;;;4984138;28;20029;-76
2022/01/23 10:04:30;;;;;;;38.47;18.13;;;2.90;99.90;;;;;;4998628;28;20022;-75
2022/01/23 10:06:56;;;;;;;28.27;13.10;;;2.90;99.90;;;;;;5001699;28;20022;-75
2022/01/23 10:09:24;;;;;;;24.08;10.27;;;2.90;99.90;;;;;;4997390;28;20034;-76
2022/01/23 10:11:50;;;;;;;25.85;10.68;;;2.90;99.90;;;;;;4984893;28;20023;-78
2022/01/23 10:14:20;;;;;;;19.48;8.18;;;2.90;99.90;;;;;;4998804;28;20113;-76
2022/01/23 10:16:47;;;;;;;34.10;10.85;;;2.80;99.90;;;;;;4983911;28;20022;-76
2022/01/23 10:19:14;;;;;;;20.55;8.35;;;3.00;99.90;;;;;;4984233;28;20034;-77
2022/01/23 10:21:41;;;;;;;13.65;7.13;;;3.20;99.90;;;;;;4996433;28;20461;-77
2022/01/23 10:24:08;;;;;;;17.95;7.25;;;3.30;99.90;;;;;;4999201;28;20104;-76
2022/01/23 10:26:38;;;;;;;14.48;7.57;;;3.50;99.90;;;;;;4999335;28;20025;-76
2022/01/23 10:29:12;;;;;;;14.60;7.00;;;3.70;99.90;;;;;;4985237;28;20060;-76
2022/01/23 10:32:03;;;;;;;15.20;8.10;;;3.70;99.90;;;;;;4985913;28;20018;-76
2022/01/23 10:35:02;;;;;;;16.52;8.13;;;3.80;99.90;;;;;;4994462;28;20022;-78
2022/01/23 10:37:38;;;;;;;11.23;4.90;;;3.90;99.90;;;;;;4975195;28;20564;-76
2022/01/23 10:40:23;;;;;;;10.80;5.57;;;3.90;99.90;;;;;;4980592;28;20026;-79
2022/01/23 10:46:34;;;;;;;12.35;6.38;;;3.90;99.90;;;;;;5003642;28;20089;-75
2022/01/23 10:48:39;;;;;;;10.15;5.75;;;4.10;99.90;;;;;;5010616;28;20093;-75
2022/01/23 10:51:16;;;;;;;14.45;6.53;;;3.90;99.90;;;;;;5004884;28;20105;-76
2022/01/23 10:54:09;;;;;;;18.33;7.72;;;3.90;99.90;;;;;;4995647;28;20022;-76
2022/01/23 10:56:54;;;;;;;11.73;6.45;;;3.90;99.90;;;;;;4984543;28;20049;-78
2022/01/23 10:59:20;;;;;;;14.35;6.80;;;4.10;99.90;;;;;;4987043;28;20102;-76
2022/01/23 11:02:07;;;;;;;9.00;4.90;;;4.20;99.90;;;;;;4984495;28;20031;-75
2022/01/23 11:04:35;;;;;;;11.30;5.25;;;4.40;99.90;;;;;;4999196;28;20077;-77
2022/01/23 11:07:05;;;;;;;7.65;4.63;;;4.40;99.90;;;;;;4990054;28;20034;-76
2022/01/23 11:09:36;;;;;;;9.38;5.30;;;4.50;99.90;;;;;;5011107;28;20014;-77
2022/01/23 11:12:15;;;;;;;8.05;5.20;;;4.60;99.90;;;;;;5011308;28;20046;-75
2022/01/23 11:17:26;;;;;;;11.30;6.40;;;4.60;99.90;;;;;;5007361;28;20044;-76
2022/01/23 11:20:00;;;;;;;19.05;8.25;;;4.70;99.90;;;;;;5008710;28;20099;-77
2022/01/23 11:22:45;;;;;;;12.02;6.30;;;5.00;99.90;;;;;;5009702;28;20022;-78
2022/01/23 11:25:32;;;;;;;22.45;8.30;;;4.90;99.90;;;;;;5012246;28;20034;-75
2022/01/23 11:28:02;;;;;;;11.93;4.38;;;4.80;99.90;;;;;;5010223;28;20026;-77
2022/01/23 11:30:38;;;;;;;7.30;3.88;;;4.80;99.90;;;;;;5010454;28;20022;-76
2022/01/23 11:33:04;;;;;;;8.43;4.05;;;4.40;99.90;;;;;;5002899;28;20030;-86
2022/01/23 11:35:30;;;;;;;10.75;4.65;;;4.30;99.90;;;;;;5002166;28;20391;-75
2022/01/23 11:37:57;;;;;;;12.68;4.63;;;4.10;99.90;;;;;;5009999;28;20057;-75
2022/01/23 11:40:35;;;;;;;9.43;4.50;;;4.10;99.90;;;;;;5008893;28;20026;-76
2022/01/23 11:53:59;;;;;;;9.05;4.00;;;4.70;99.90;;;;;;4997878;28;20471;-75
2022/01/23 11:56:25;;;;;;;9.88;4.95;;;4.50;99.90;;;;;;4973786;28;20411;-78
2022/01/23 11:59:10;;;;;;;9.52;4.60;;;4.50;99.90;;;;;;4974575;28;20023;-79
2022/01/23 12:01:38;;;;;;;11.80;4.88;;;4.30;99.90;;;;;;4973996;28;20466;-76
2022/01/23 12:04:14;;;;;;;10.60;4.73;;;4.40;99.90;;;;;;4991225;28;20506;-77
2022/01/23 12:06:42;;;;;;;17.70;6.07;;;4.40;99.90;;;;;;4973067;28;20042;-79
2022/01/23 12:09:17;;;;;;;12.75;5.10;;;4.40;99.90;;;;;;4991114;28;20030;-78
2022/01/23 12:12:09;;;;;;;15.23;6.07;;;4.20;99.90;;;;;;4991252;28;20483;-75
2022/01/23 12:17:41;;;;;;;12.85;5.90;;;4.20;99.90;;;;;;4992092;28;20530;-76
2022/01/23 12:20:07;;;;;;;8.50;5.03;;;4.20;99.90;;;;;;4952307;29;20027;-79
2022/01/23 12:22:37;;;;;;;13.35;6.05;;;4.20;99.90;;;;;;4983291;28;20041;-78
2022/01/23 12:25:18;;;;;;;8.25;5.22;;;4.10;99.90;;;;;;4992140;28;20437;-79
2022/01/23 12:27:45;;;;;;;13.45;6.50;;;4.20;99.90;;;;;;4993408;28;20038;-79
2022/01/23 12:30:22;;;;;;;14.55;6.18;;;4.00;99.90;;;;;;4993382;28;20035;-80
2022/01/23 12:33:12;;;;;;;11.30;5.25;;;4.10;99.90;;;;;;4992093;28;20435;-76
2022/01/23 12:35:40;;;;;;;11.57;5.75;;;4.20;99.90;;;;;;4971351;28;20035;-76
2022/01/23 12:38:10;;;;;;;9.88;4.70;;;4.30;99.90;;;;;;4990064;28;20273;-78
2022/01/23 12:40:40;;;;;;;8.55;4.68;;;4.20;99.90;;;;;;4989671;28;20195;-79
2022/01/23 12:43:07;;;;;;;9.25;5.13;;;4.20;99.90;;;;;;5000895;28;20030;-76
2022/01/23 12:46:00;;;;;;;8.13;4.20;;;4.20;99.90;;;;;;4997756;28;20049;-76
2022/01/23 12:48:26;;;;;;;11.90;6.25;;;4.20;99.90;;;;;;4991003;28;20037;-77
2022/01/23 12:51:01;;;;;;;11.15;5.57;;;4.30;99.90;;;;;;4996107;28;20348;-78
2022/01/23 12:53:57;;;;;;;14.68;5.80;;;4.30;99.90;;;;;;4994350;28;20034;-75
2022/01/23 12:56:41;;;;;;;7.93;4.90;;;4.40;99.90;;;;;;4996961;28;20038;-77
2022/01/23 12:59:10;;;;;;;16.63;5.97;;;4.40;99.90;;;;;;5004154;28;20026;-75
2022/01/23 13:01:38;;;;;;;12.88;5.82;;;4.50;99.90;;;;;;5002233;28;20093;-79
2022/01/23 13:04:06;;;;;;;11.80;5.65;;;4.20;99.90;;;;;;4998619;28;20110;-77
2022/01/23 13:06:40;;;;;;;7.28;4.35;;;4.20;99.90;;;;;;4997977;28;20078;-76
2022/01/23 13:09:21;;;;;;;11.95;5.00;;;4.30;99.90;;;;;;4995694;28;20018;-77
2022/01/23 13:31:58;;;;;;;13.23;6.07;;;4.70;99.90;;;;;;4993799;28;20477;-77
2022/01/23 13:34:31;;;;;;;6.63;4.00;;;4.70;99.90;;;;;;4992734;28;20113;-76
2022/01/23 13:36:58;;;;;;;11.70;4.85;;;4.70;99.90;;;;;;4992365;28;20050;-77
2022/01/23 13:39:28;;;;;;;9.68;4.75;;;4.60;99.90;;;;;;4992305;28;20416;-77
2022/01/23 13:42:01;;;;;;;;;;;4.60;99.90;;;;;;4993205;28;20030;-76
2022/01/23 13:52:57;;;;;;;8.00;4.78;;;4.90;99.90;;;;;;4994395;28;20037;-79
2022/01/23 13:58:52;;;;;;;10.30;4.78;;;5.00;99.90;;;;;;4993699;28;20029;-77
2022/01/23 14:01:09;;;;;;;7.27;2.93;;;5.00;99.90;;;;;;4983177;28;20030;-76
2022/01/23 14:03:35;;;;;;;;;;;5.00;99.90;;;;;;4994349;28;20034;-77
2022/01/23 14:06:02;;;;;;;8.60;4.57;;;5.00;99.90;;;;;;4994032;28;19906;-76
2022/01/23 14:08:28;;;;;;;9.48;4.32;;;5.00;99.90;;;;;;4993504;28;20036;-78
2022/01/23 14:10:54;;;;;;;6.68;3.40;;;5.00;99.90;;;;;;4993308;28;20034;-76
2022/01/23 14:13:19;;;;;;;7.50;3.80;;;4.90;99.90;;;;;;4994172;28;20058;-76
2022/01/23 14:15:50;;;;;;;7.00;3.60;;;5.00;99.90;;;;;;4995401;28;20041;-76
2022/01/23 14:18:24;;;;;;;16.40;5.60;;;4.80;99.90;;;;;;4994887;28;20530;-75
2022/01/23 14:21:22;;;;;;;24.00;9.73;;;4.80;99.90;;;;;;4995172;28;20026;-80
2022/01/23 14:23:55;;;;;;;11.15;5.60;;;4.90;99.90;;;;;;4985722;28;20042;-75
2022/01/23 14:26:22;;;;;;;11.00;4.32;;;4.90;99.90;;;;;;4992826;28;20033;-81
2022/01/23 14:28:50;;;;;;;9.00;3.65;;;4.80;99.90;;;;;;4994449;28;20026;-75
2022/01/23 14:31:22;;;;;;;6.30;3.75;;;4.70;99.90;;;;;;4997203;28;20018;-75
2022/01/23 14:33:55;;;;;;;6.40;3.30;;;4.60;99.90;;;;;;4995435;28;20175;-75
2022/01/23 14:36:25;;;;;;;8.52;4.70;;;4.60;99.90;;;;;;4993313;28;20042;-79
2022/01/23 14:38:56;;;;;;;;;;;4.70;99.90;;;;;;4994224;28;20091;-76
2022/01/23 14:41:24;;;;;;;8.75;3.97;;;4.60;99.90;;;;;;4992538;28;20006;-75
2022/01/23 14:43:50;;;;;;;6.28;4.05;;;4.60;99.90;;;;;;4994232;28;20636;-76
2022/01/23 14:46:16;;;;;;;11.73;4.43;;;4.60;99.90;;;;;;4994335;28;20085;-78
2022/01/23 14:48:47;;;;;;;8.27;4.45;;;4.50;99.90;;;;;;4993244;28;20232;-76
2022/01/23 14:51:19;;;;;;;12.55;5.05;;;4.50;99.90;;;;;;4993332;28;20030;-76
2022/01/23 14:53:46;;;;;;;11.85;4.65;;;4.60;99.90;;;;;;4993034;28;20027;-78
2022/01/23 14:56:13;;;;;;;11.95;4.40;;;4.60;99.90;;;;;;4993215;28;20030;-78
2022/01/23 14:58:40;;;;;;;7.28;2.67;;;4.60;99.90;;;;;;4994162;28;20018;-76
2022/01/23 15:01:10;;;;;;;8.68;4.00;;;4.60;99.90;;;;;;4989153;28;20109;-77
2022/01/23 15:03:36;;;;;;;;;;;4.60;99.90;;;;;;4991947;28;20015;-77
2022/01/23 15:06:03;;;;;;;6.90;3.60;;;4.60;99.90;;;;;;4993812;28;19905;-77
2022/01/23 15:08:29;;;;;;;10.07;3.92;;;4.40;99.90;;;;;;4993480;28;20026;-76
2022/01/23 15:11:00;;;;;;;7.78;3.15;;;4.50;99.90;;;;;;4976123;28;20490;-75
2022/01/23 15:13:28;;;;;;;11.18;4.00;;;4.40;99.90;;;;;;4993493;28;20022;-76
2022/01/23 15:15:55;;;;;;;7.03;4.53;;;4.40;99.90;;;;;;4992472;28;20038;-78
2022/01/23 15:18:22;;;;;;;7.30;3.67;;;4.40;99.90;;;;;;4993011;28;20062;-76
2022/01/23 15:20:48;;;;;;;8.30;3.72;;;4.40;99.90;;;;;;4975531;28;20090;-77
2022/01/23 15:23:14;;;;;;;10.82;4.40;;;4.40;99.90;;;;;;4992769;28;20022;-75
2022/01/23 15:25:42;;;;;;;6.72;3.67;;;4.50;99.90;;;;;;4988804;28;20407;-76
2022/01/23 15:28:08;;;;;;;8.68;3.53;;;4.50;99.90;;;;;;4984823;28;20026;-76
2022/01/23 15:30:36;;;;;;;8.35;3.50;;;4.50;99.90;;;;;;4992567;28;20026;-76
2022/01/23 15:33:03;;;;;;;7.00;3.72;;;4.50;99.90;;;;;;4991519;28;20015;-75
2022/01/23 15:35:29;;;;;;;6.85;4.20;;;4.40;99.90;;;;;;4992219;28;20511;-78
2022/01/23 15:37:55;;;;;;;7.50;3.67;;;4.40;99.90;;;;;;4991961;28;20062;-76
2022/01/23 15:40:22;;;;;;;11.93;3.53;;;4.40;99.90;;;;;;4974212;28;20030;-75
2022/01/23 15:42:50;;;;;;;8.85;4.32;;;4.30;99.90;;;;;;4992254;28;20035;-75
2022/01/23 15:45:18;;;;;;;6.38;3.75;;;4.40;99.90;;;;;;4991965;28;20018;-77
2022/01/23 15:47:44;;;;;;;8.57;4.32;;;4.30;99.90;;;;;;4994235;28;20061;-76
2022/01/23 15:50:12;;;;;;;10.60;4.53;;;4.30;99.90;;;;;;4992141;28;20018;-76
2022/01/23 15:52:38;;;;;;;8.38;4.55;;;4.30;99.90;;;;;;4992252;28;20160;-77
2022/01/23 15:55:06;;;;;;;10.35;4.25;;;4.40;99.90;;;;;;4991606;28;20534;-76
2022/01/23 15:57:31;;;;;;;21.58;7.82;;;4.40;99.90;;;;;;4994191;28;20023;-80
2022/01/23 15:59:57;;;;;;;9.25;5.72;;;4.30;99.90;;;;;;4991453;28;20041;-79
2022/01/23 16:02:23;;;;;;;11.02;4.88;;;4.20;99.90;;;;;;4974012;28;20056;-76
2022/01/23 16:04:49;;;;;;;7.22;3.60;;;4.10;99.90;;;;;;4992663;28;20105;-75
2022/01/23 16:07:18;;;;;;;13.13;4.90;;;4.00;99.90;;;;;;4993285;28;20105;-79
2022/01/23 16:09:45;;;;;;;43.88;13.15;;;4.10;99.90;;;;;;4991922;28;20019;-75
2022/01/23 16:12:12;;;;;;;68.10;17.88;;;4.00;99.90;;;;;;4991311;28;20030;-76
2022/01/23 16:14:37;;;;;;;16.77;6.75;;;4.00;99.90;;;;;;4991314;28;20026;-75